Arenzville, Illinois
Current Conditions -  °F | °C
As of 9:15 PM on Wednesday 22 Oct 2014 (Local Time) from KIJX Reporting Station
Clear Clear  
Wind Chill:   Ceiling: Unl
Heat Index:   Visibility: 10mi
Dew Point:   Wind: 5mph
Humidity: 79%   Direction: 100°E
Pressure: 30.24"   Gusts: NA
Location:  39.88°N, 90.37°W
Report Text: KIJX 230215Z AUTO 10004KT 10SM CLR 07/03 A3024 RMK AO2 T00680034
Loading
Personal Weather Stations






























Interactive Weather Map
Tropical Storm Tracking
New forecast layout! Learn more

10-Day Weather Forecast

Advertisements
Track Severe Weather on mobile